Wishon, California
Current Conditions -  °F | °C
As of 1:53 PM on Thursday 23 Oct 2014 (Local Time) from KFAT Reporting Station
Broken Clouds Broken Clouds  
Wind Chill: 80°   Ceiling: 25000
Heat Index: 80°   Visibility: 9mi
Dew Point: 43°   Wind: 5mph
Humidity: 27%   Direction: 210°SSW
Pressure: 30.02"   Gusts: NA
Location:  37.27°N, 119.54°W
Report Text: KFAT 232053Z 21004KT 9SM FEW150 BKN250 27/06 A3002 RMK AO2 SLP162 MTNS OBSC HZ DSNT E-S T02670061 58020
Loading
Personal Weather Stations






























Interactive Weather Map
Tropical Storm Tracking
New forecast layout! Learn more

10-Day Weather Forecast

Advertisements
Track Severe Weather on mobile